PREDP SBBE-SBSR
Flight info
| Callsign | PREDP |
|---|---|
| Flight time | N/A |
| Altitude | 26000 |
| Route | DCT KODSU UZ26 IRISO DCT ILKUS DCT KUKOL DCT OPKIL |
| Aircraft | B350/M-SDFGRW/S |
Departure
| Time | 2026-05-05 22:08 |
|---|---|
| Airport | Val de Cans/Júlio Cezar Ribeiro International Airport (SBBE) |
Arrival
| Time | N/A |
|---|---|
| Airport | Prof. Eribelto Manoel Reino State Airport (SBSR) |
| Time | Latitude | Longitude | Altitude | Speed | Heading |
|---|---|---|---|---|---|
| 2026-05-05 21:51 | -1.38785 | -48.47513 | 58 ft | 0 kts | 12° |
| 2026-05-05 22:02 | -1.38784 | -48.47513 | 58 ft | 0 kts | 11° |
| 2026-05-05 22:02 | -1.38775 | -48.47532 | 58 ft | 6 kts | 285° |
| 2026-05-05 22:02 | -1.38742 | -48.47556 | 58 ft | 8 kts | 7° |
| 2026-05-05 22:03 | -1.38694 | -48.47552 | 58 ft | 7 kts | 5° |
| 2026-05-05 22:03 | -1.38633 | -48.47546 | 58 ft | 11 kts | 6° |
| 2026-05-05 22:03 | -1.38548 | -48.47538 | 58 ft | 12 kts | 5° |
| 2026-05-05 22:03 | -1.38455 | -48.47530 | 58 ft | 11 kts | 6° |
| 2026-05-05 22:04 | -1.38409 | -48.47533 | 58 ft | 5 kts | 306° |
| 2026-05-05 22:04 | -1.38403 | -48.47585 | 58 ft | 10 kts | 274° |
| 2026-05-05 22:04 | -1.38430 | -48.47652 | 58 ft | 10 kts | 191° |
| 2026-05-05 22:04 | -1.38515 | -48.47662 | 58 ft | 13 kts | 185° |
| 2026-05-05 22:05 | -1.38619 | -48.47672 | 58 ft | 15 kts | 189° |
| 2026-05-05 22:05 | -1.38664 | -48.47756 | 58 ft | 13 kts | 269° |
| 2026-05-05 22:05 | -1.38666 | -48.47826 | 58 ft | 7 kts | 267° |
| 2026-05-05 22:05 | -1.38670 | -48.47905 | 58 ft | 13 kts | 267° |
| 2026-05-05 22:06 | -1.38672 | -48.48000 | 58 ft | 8 kts | 269° |
| 2026-05-05 22:06 | -1.38672 | -48.48057 | 58 ft | 9 kts | 269° |
| 2026-05-05 22:06 | -1.38674 | -48.48130 | 58 ft | 12 kts | 268° |
| 2026-05-05 22:06 | -1.38675 | -48.48206 | 58 ft | 7 kts | 269° |
| 2026-05-05 22:07 | -1.38676 | -48.48258 | 58 ft | 7 kts | 268° |
| 2026-05-05 22:07 | -1.38679 | -48.48311 | 58 ft | 7 kts | 266° |
| 2026-05-05 22:07 | -1.38676 | -48.48359 | 58 ft | 5 kts | 346° |
| 2026-05-05 22:07 | -1.38666 | -48.48354 | 58 ft | 0 kts | 47° |
| 2026-05-05 22:08 | -1.38627 | -48.48313 | 58 ft | 34 kts | 47° |
| 2026-05-05 22:08 | -1.38232 | -48.47915 | 58 ft | 119 kts | 46° |
| 2026-05-05 22:08 | -1.37545 | -48.47258 | 354 ft | 144 kts | 45° |
| 2026-05-05 22:08 | -1.36805 | -48.46600 | 1083 ft | 142 kts | 43° |
| 2026-05-05 22:09 | -1.36149 | -48.45912 | 1805 ft | 139 kts | 58° |
| 2026-05-05 22:09 | -1.35853 | -48.45012 | 2400 ft | 143 kts | 85° |
| 2026-05-05 22:09 | -1.36080 | -48.44011 | 2868 ft | 157 kts | 116° |
| 2026-05-05 22:09 | -1.36777 | -48.43235 | 3572 ft | 152 kts | 139° |
| 2026-05-05 22:10 | -1.37796 | -48.42952 | 4158 ft | 160 kts | 180° |
| 2026-05-05 22:10 | -1.38905 | -48.43169 | 4683 ft | 164 kts | 187° |
| 2026-05-05 22:10 | -1.40040 | -48.43394 | 5237 ft | 168 kts | 182° |
| 2026-05-05 22:10 | -1.41212 | -48.43449 | 5768 ft | 171 kts | 169° |
| 2026-05-05 22:11 | -1.42390 | -48.43292 | 6372 ft | 171 kts | 165° |
| 2026-05-05 22:11 | -1.43552 | -48.43085 | 6981 ft | 170 kts | 164° |
| 2026-05-05 22:11 | -1.44716 | -48.42858 | 7555 ft | 170 kts | 164° |
| 2026-05-05 22:11 | -1.45866 | -48.42626 | 8096 ft | 171 kts | 164° |
| 2026-05-05 22:12 | -1.47035 | -48.42388 | 8609 ft | 172 kts | 164° |
| 2026-05-05 22:12 | -1.48218 | -48.42146 | 9108 ft | 174 kts | 164° |
| 2026-05-05 22:12 | -1.49402 | -48.41903 | 9577 ft | 176 kts | 165° |
| 2026-05-05 22:12 | -1.50602 | -48.41659 | 10035 ft | 178 kts | 165° |
| 2026-05-05 22:13 | -1.51830 | -48.41407 | 10491 ft | 183 kts | 164° |
| 2026-05-05 22:13 | -1.53090 | -48.41148 | 11038 ft | 186 kts | 164° |
| 2026-05-05 22:13 | -1.54343 | -48.40891 | 11607 ft | 186 kts | 164° |
| 2026-05-05 22:13 | -1.55615 | -48.40630 | 12148 ft | 187 kts | 164° |
| 2026-05-05 22:14 | -1.56904 | -48.40366 | 12671 ft | 189 kts | 163° |
| 2026-05-05 22:14 | -1.58195 | -48.40100 | 13159 ft | 191 kts | 164° |
| 2026-05-05 22:14 | -1.59507 | -48.39831 | 13630 ft | 193 kts | 164° |
| 2026-05-05 22:14 | -1.60822 | -48.39561 | 14085 ft | 195 kts | 164° |
| 2026-05-05 22:15 | -1.62169 | -48.39286 | 14552 ft | 195 kts | 165° |
| 2026-05-05 22:15 | -1.63509 | -48.39050 | 14988 ft | 197 kts | 166° |
| 2026-05-05 22:15 | -1.64867 | -48.38814 | 15414 ft | 198 kts | 166° |
| 2026-05-05 22:15 | -1.66231 | -48.38577 | 15825 ft | 199 kts | 166° |
| 2026-05-05 22:16 | -1.67601 | -48.38339 | 16214 ft | 201 kts | 167° |
| 2026-05-05 22:16 | -1.68976 | -48.38100 | 16592 ft | 202 kts | 167° |
| 2026-05-05 22:16 | -1.70370 | -48.37858 | 16965 ft | 203 kts | 166° |
| 2026-05-05 22:16 | -1.71778 | -48.37612 | 17332 ft | 204 kts | 166° |
| 2026-05-05 22:17 | -1.73174 | -48.37369 | 17674 ft | 205 kts | 166° |
| 2026-05-05 22:17 | -1.74586 | -48.37123 | 18006 ft | 206 kts | 167° |
| 2026-05-05 22:17 | -1.76000 | -48.36878 | 18317 ft | 207 kts | 167° |
| 2026-05-05 22:17 | -1.77424 | -48.36630 | 18596 ft | 207 kts | 167° |
| 2026-05-05 22:18 | -1.78862 | -48.36380 | 18839 ft | 208 kts | 167° |
| 2026-05-05 22:18 | -1.80276 | -48.36134 | 19062 ft | 209 kts | 167° |
| 2026-05-05 22:18 | -1.81718 | -48.35860 | 19253 ft | 210 kts | 166° |
| 2026-05-05 22:18 | -1.83174 | -48.35581 | 19437 ft | 211 kts | 166° |
| 2026-05-05 22:19 | -1.84611 | -48.35306 | 19615 ft | 211 kts | 166° |
| 2026-05-05 22:19 | -1.86061 | -48.35028 | 19771 ft | 211 kts | 166° |
| 2026-05-05 22:19 | -1.87504 | -48.34752 | 19916 ft | 213 kts | 166° |
| 2026-05-05 22:19 | -1.88117 | -48.34635 | 19981 ft | 213 kts | 166° |
| 2026-05-05 22:20 | -1.89561 | -48.34358 | 20119 ft | 212 kts | 166° |
| 2026-05-05 22:20 | -1.91009 | -48.34081 | 20210 ft | 211 kts | 166° |
| 2026-05-05 22:20 | -1.92453 | -48.33804 | 20241 ft | 210 kts | 166° |
| 2026-05-05 22:20 | -1.93918 | -48.33524 | 20277 ft | 214 kts | 166° |
| 2026-05-05 22:21 | -1.95384 | -48.33243 | 20333 ft | 215 kts | 166° |
| 2026-05-05 22:21 | -1.96853 | -48.32962 | 20440 ft | 211 kts | 167° |
| 2026-05-05 22:21 | -1.98318 | -48.32693 | 20608 ft | 213 kts | 167° |
| 2026-05-05 22:21 | -1.99787 | -48.32426 | 20795 ft | 215 kts | 167° |
| 2026-05-05 22:22 | -2.01252 | -48.32159 | 21031 ft | 214 kts | 168° |
| 2026-05-05 22:22 | -2.02736 | -48.32028 | 21292 ft | 212 kts | 180° |
| 2026-05-05 22:22 | -2.04185 | -48.32239 | 21560 ft | 211 kts | 194° |
| 2026-05-05 22:22 | -2.05565 | -48.32786 | 21766 ft | 213 kts | 206° |
| 2026-05-05 22:23 | -2.06857 | -48.33521 | 21964 ft | 216 kts | 208° |
| 2026-05-05 22:23 | -2.08181 | -48.34265 | 22178 ft | 216 kts | 207° |
| 2026-05-05 22:23 | -2.09494 | -48.34993 | 22397 ft | 217 kts | 206° |
| 2026-05-05 22:23 | -2.10813 | -48.35717 | 22621 ft | 217 kts | 206° |
| 2026-05-05 22:24 | -2.12145 | -48.36446 | 22843 ft | 217 kts | 207° |
| 2026-05-05 22:24 | -2.13487 | -48.37178 | 23052 ft | 218 kts | 207° |
| 2026-05-05 22:24 | -2.14818 | -48.37903 | 23247 ft | 219 kts | 207° |
| 2026-05-05 22:24 | -2.16160 | -48.38634 | 23441 ft | 220 kts | 207° |
| 2026-05-05 22:25 | -2.17511 | -48.39368 | 23636 ft | 220 kts | 207° |
| 2026-05-05 22:25 | -2.18867 | -48.40107 | 23834 ft | 221 kts | 207° |
| 2026-05-05 22:25 | -2.20203 | -48.40833 | 24022 ft | 222 kts | 207° |
| 2026-05-05 22:25 | -2.21573 | -48.41578 | 24206 ft | 222 kts | 207° |
| 2026-05-05 22:26 | -2.22930 | -48.42316 | 24383 ft | 223 kts | 207° |
| 2026-05-05 22:26 | -2.24320 | -48.43073 | 24566 ft | 224 kts | 207° |
| 2026-05-05 22:26 | -2.25690 | -48.43818 | 24746 ft | 224 kts | 207° |
| 2026-05-05 22:26 | -2.27073 | -48.44570 | 24921 ft | 225 kts | 207° |
| 2026-05-05 22:27 | -2.28441 | -48.45314 | 25091 ft | 225 kts | 207° |
| 2026-05-05 22:27 | -2.29835 | -48.46050 | 25261 ft | 225 kts | 202° |
| 2026-05-05 22:27 | -2.31308 | -48.46531 | 25419 ft | 224 kts | 189° |
| 2026-05-05 22:27 | -2.32863 | -48.46677 | 25584 ft | 222 kts | 178° |
| 2026-05-05 22:28 | -2.34411 | -48.46627 | 25748 ft | 222 kts | 177° |
| 2026-05-05 22:28 | -2.35983 | -48.46587 | 25895 ft | 223 kts | 178° |
| 2026-05-05 22:28 | -2.37558 | -48.46556 | 25959 ft | 229 kts | 178° |
| 2026-05-05 22:28 | -2.39176 | -48.46529 | 25971 ft | 236 kts | 178° |
| 2026-05-05 22:29 | -2.40858 | -48.46504 | 25970 ft | 244 kts | 178° |
| 2026-05-05 22:29 | -2.42591 | -48.46479 | 25969 ft | 251 kts | 178° |
| 2026-05-05 22:29 | -2.44354 | -48.46455 | 25970 ft | 258 kts | 178° |
| 2026-05-05 22:29 | -2.46185 | -48.46431 | 25972 ft | 265 kts | 178° |
| 2026-05-05 22:30 | -2.48056 | -48.46405 | 25969 ft | 271 kts | 178° |
| 2026-05-05 22:30 | -2.49975 | -48.46380 | 25970 ft | 275 kts | 178° |
| 2026-05-05 22:30 | -2.51908 | -48.46355 | 25969 ft | 280 kts | 178° |
| 2026-05-05 22:30 | -2.53875 | -48.46329 | 25971 ft | 284 kts | 178° |
| 2026-05-05 22:31 | -2.55871 | -48.46302 | 25969 ft | 288 kts | 178° |
| 2026-05-05 22:31 | -2.57908 | -48.46275 | 25971 ft | 292 kts | 178° |
| 2026-05-05 22:31 | -2.59935 | -48.46249 | 25969 ft | 294 kts | 178° |
| 2026-05-05 22:31 | -2.61979 | -48.46222 | 25968 ft | 295 kts | 178° |
| 2026-05-05 22:32 | -2.64057 | -48.46194 | 25968 ft | 296 kts | 178° |
| 2026-05-05 22:32 | -2.66116 | -48.46166 | 25966 ft | 297 kts | 178° |
| 2026-05-05 22:32 | -2.68210 | -48.46139 | 25969 ft | 298 kts | 178° |
| 2026-05-05 22:32 | -2.70299 | -48.46111 | 25969 ft | 299 kts | 178° |
| 2026-05-05 22:33 | -2.72369 | -48.46083 | 25973 ft | 299 kts | 178° |
| 2026-05-05 22:33 | -2.74452 | -48.46056 | 25968 ft | 300 kts | 178° |
| 2026-05-05 22:33 | -2.76557 | -48.46027 | 25966 ft | 301 kts | 178° |
| 2026-05-05 22:33 | -2.78685 | -48.45999 | 25965 ft | 302 kts | 178° |
| 2026-05-05 22:34 | -2.80795 | -48.45971 | 25967 ft | 303 kts | 178° |
| 2026-05-05 22:34 | -2.82898 | -48.45943 | 25968 ft | 303 kts | 178° |
| 2026-05-05 22:34 | -2.85033 | -48.45914 | 25967 ft | 304 kts | 178° |
| 2026-05-05 22:34 | -2.87138 | -48.45886 | 25970 ft | 305 kts | 178° |
| 2026-05-05 22:35 | -2.89290 | -48.45858 | 25970 ft | 305 kts | 178° |
| 2026-05-05 22:35 | -2.91417 | -48.45829 | 25969 ft | 306 kts | 178° |
| 2026-05-05 22:35 | -2.93560 | -48.45801 | 25973 ft | 306 kts | 178° |
| 2026-05-05 22:35 | -2.95686 | -48.45773 | 25976 ft | 307 kts | 178° |
| 2026-05-05 22:36 | -2.97833 | -48.45744 | 25978 ft | 307 kts | 178° |
| 2026-05-05 22:36 | -2.99984 | -48.45715 | 25976 ft | 308 kts | 178° |
| 2026-05-05 22:36 | -3.02126 | -48.45687 | 25977 ft | 307 kts | 178° |
| 2026-05-05 22:36 | -3.04268 | -48.45658 | 25976 ft | 307 kts | 178° |
| 2026-05-05 22:37 | -3.06409 | -48.45629 | 25977 ft | 307 kts | 178° |
| 2026-05-05 22:37 | -3.08570 | -48.45600 | 25977 ft | 307 kts | 178° |
| 2026-05-05 22:37 | -3.10713 | -48.45572 | 25978 ft | 307 kts | 178° |
| 2026-05-05 22:37 | -3.12835 | -48.45544 | 25979 ft | 306 kts | 178° |
| 2026-05-05 22:38 | -3.14992 | -48.45515 | 25979 ft | 306 kts | 178° |
| 2026-05-05 22:38 | -3.17135 | -48.45486 | 25977 ft | 307 kts | 178° |
| 2026-05-05 22:38 | -3.19265 | -48.45458 | 25975 ft | 307 kts | 178° |
| 2026-05-05 22:38 | -3.21395 | -48.45430 | 25974 ft | 307 kts | 178° |
| 2026-05-05 22:39 | -3.23546 | -48.45401 | 25971 ft | 307 kts | 178° |
| 2026-05-05 22:39 | -3.25693 | -48.45372 | 25971 ft | 307 kts | 178° |
| 2026-05-05 22:39 | -3.27818 | -48.45344 | 25971 ft | 307 kts | 178° |
| 2026-05-05 22:39 | -3.29976 | -48.45315 | 25971 ft | 307 kts | 178° |
| 2026-05-05 22:40 | -3.32100 | -48.45287 | 25972 ft | 307 kts | 178° |
| 2026-05-05 22:40 | -3.34249 | -48.45258 | 25971 ft | 307 kts | 178° |
| 2026-05-05 22:40 | -3.36404 | -48.45229 | 25971 ft | 307 kts | 178° |
| 2026-05-05 22:40 | -3.38540 | -48.45201 | 25969 ft | 307 kts | 178° |
| 2026-05-05 22:41 | -3.40676 | -48.45173 | 25970 ft | 308 kts | 178° |
| 2026-05-05 22:41 | -3.42840 | -48.45143 | 25970 ft | 308 kts | 178° |
| 2026-05-05 22:41 | -3.45000 | -48.45115 | 25970 ft | 308 kts | 178° |
| 2026-05-05 22:41 | -3.47139 | -48.45086 | 25972 ft | 308 kts | 178° |
| 2026-05-05 22:42 | -3.49294 | -48.45057 | 25973 ft | 308 kts | 178° |
| 2026-05-05 22:42 | -3.51436 | -48.45029 | 25974 ft | 308 kts | 178° |
| 2026-05-05 22:42 | -3.53595 | -48.45000 | 25971 ft | 308 kts | 178° |
| 2026-05-05 22:42 | -3.55725 | -48.44971 | 25972 ft | 308 kts | 178° |
| 2026-05-05 22:43 | -3.57888 | -48.44942 | 25973 ft | 308 kts | 178° |
| 2026-05-05 22:43 | -3.60039 | -48.44913 | 25974 ft | 309 kts | 178° |
| 2026-05-05 22:43 | -3.62205 | -48.44883 | 25974 ft | 309 kts | 178° |
| 2026-05-05 22:43 | -3.64339 | -48.44855 | 25975 ft | 309 kts | 178° |
| 2026-05-05 22:44 | -3.66507 | -48.44826 | 25975 ft | 309 kts | 178° |
| 2026-05-05 22:44 | -3.68669 | -48.44797 | 25975 ft | 309 kts | 178° |
| 2026-05-05 22:44 | -3.70808 | -48.44768 | 25975 ft | 310 kts | 178° |
| 2026-05-05 22:44 | -3.72975 | -48.44739 | 25977 ft | 310 kts | 178° |
| 2026-05-05 22:45 | -3.75140 | -48.44709 | 25976 ft | 310 kts | 178° |
| 2026-05-05 22:45 | -3.77310 | -48.44680 | 25975 ft | 310 kts | 178° |
| 2026-05-05 22:45 | -3.79472 | -48.44651 | 25975 ft | 310 kts | 178° |
| 2026-05-05 22:45 | -3.81638 | -48.44622 | 25975 ft | 311 kts | 178° |
| 2026-05-05 22:46 | -3.83819 | -48.44593 | 25976 ft | 311 kts | 178° |
| 2026-05-05 22:46 | -3.85993 | -48.44564 | 25976 ft | 311 kts | 178° |
| 2026-05-05 22:46 | -3.88164 | -48.44534 | 25975 ft | 311 kts | 178° |
| 2026-05-05 22:46 | -3.90330 | -48.44505 | 25977 ft | 311 kts | 178° |
| 2026-05-05 22:47 | -3.92516 | -48.44476 | 25978 ft | 311 kts | 178° |
| 2026-05-05 22:47 | -3.94684 | -48.44446 | 25976 ft | 312 kts | 178° |
| 2026-05-05 22:47 | -3.96866 | -48.44417 | 25976 ft | 312 kts | 178° |
| 2026-05-05 22:47 | -3.99023 | -48.44388 | 25978 ft | 312 kts | 178° |
| 2026-05-05 22:48 | -4.01220 | -48.44358 | 25978 ft | 312 kts | 178° |
| 2026-05-05 22:48 | -4.03388 | -48.44329 | 25979 ft | 312 kts | 178° |
| 2026-05-05 22:48 | -4.05578 | -48.44300 | 25978 ft | 313 kts | 178° |
| 2026-05-05 22:48 | -4.07755 | -48.44270 | 25978 ft | 313 kts | 178° |
| 2026-05-05 22:49 | -4.09941 | -48.44241 | 25977 ft | 313 kts | 178° |
| 2026-05-05 22:49 | -4.12121 | -48.44211 | 25976 ft | 313 kts | 178° |
| 2026-05-05 22:49 | -4.14335 | -48.44181 | 25971 ft | 314 kts | 178° |
| 2026-05-05 22:49 | -4.16513 | -48.44152 | 25967 ft | 314 kts | 178° |
| 2026-05-05 22:50 | -4.18710 | -48.44123 | 25963 ft | 314 kts | 178° |
| 2026-05-05 22:50 | -4.20887 | -48.44093 | 25961 ft | 315 kts | 178° |
| 2026-05-05 22:50 | -4.23088 | -48.44064 | 25962 ft | 315 kts | 178° |
| 2026-05-05 22:50 | -4.25300 | -48.44034 | 25961 ft | 315 kts | 178° |
| 2026-05-05 22:51 | -4.27481 | -48.44004 | 25962 ft | 315 kts | 178° |
| 2026-05-05 22:51 | -4.29702 | -48.43974 | 25962 ft | 315 kts | 178° |
| 2026-05-05 22:51 | -4.31899 | -48.43944 | 25963 ft | 315 kts | 178° |